Terminal Aerodrome Forecast
Issued by NWS

Home | Current Version | Previous Version | Text Only | Print | Product List | Glossary On
Versions: 1 2 3 4 5 6 7 8 9 10 11 12 13
000
FTUS44 KBMX 302300
TAFTCL
TAF
KTCL 302339Z 3100/3124 18010KT P6SM VCSH BKN035 OVC050
     FM310300 10002KT 6SM BR BKN250
     FM310700 VRB04KT 4SM BR BKN025
     FM311400 20007KT 6SM HZ BKN015
     FM311800 21007KT P6SM BKN050=

USA.gov is the U.S. government's official web portal to all federal, state and local government web resources and services.